createdAt,value
2018-06-20T00:02:19.204Z,21.90
2018-06-20T00:04:48.371Z,21.90
2018-06-20T00:07:18.545Z,21.90
2018-06-20T00:09:48.390Z,21.90
2018-06-20T00:12:17.546Z,21.80
2018-06-20T00:14:46.720Z,21.70
2018-06-20T00:17:15.874Z,21.70
2018-06-20T00:19:45.031Z,21.70
2018-06-20T00:22:14.203Z,21.70
2018-06-20T00:24:43.355Z,21.70
2018-06-20T00:27:12.520Z,21.60
2018-06-20T00:29:42.195Z,21.50
2018-06-20T00:32:11.407Z,21.50
2018-06-20T00:34:40.567Z,21.40
2018-06-20T00:39:38.539Z,21.40
2018-06-20T00:42:08.015Z,21.40
2018-06-20T00:44:37.186Z,21.40
2018-06-20T00:47:06.342Z,21.40
2018-06-20T00:52:04.983Z,21.40
2018-06-20T00:54:34.144Z,21.40
2018-06-20T00:57:03.311Z,21.30
2018-06-20T00:59:32.511Z,21.30
2018-06-20T01:02:01.680Z,21.30
2018-06-20T01:04:30.830Z,21.30
2018-06-20T01:07:00.055Z,21.20
2018-06-20T01:09:29.742Z,21.20
2018-06-20T01:14:28.102Z,21.00
2018-06-20T01:16:57.306Z,21.00
2018-06-20T01:19:26.458Z,21.00
2018-06-20T01:21:55.650Z,21.00
2018-06-20T01:24:24.798Z,21.00
2018-06-20T01:26:53.967Z,21.00
2018-06-20T01:29:23.246Z,20.90
2018-06-20T01:31:52.440Z,20.90
2018-06-20T01:34:21.590Z,21.00
2018-06-20T01:36:51.165Z,20.90
2018-06-20T01:39:20.314Z,21.00
2018-06-20T01:41:49.482Z,21.00
2018-06-20T01:44:18.681Z,20.90
2018-06-20T01:46:47.839Z,20.90
2018-06-20T01:51:45.763Z,21.00
2018-06-20T01:54:14.911Z,21.00
2018-06-20T01:56:44.075Z,20.90
2018-06-20T01:59:13.644Z,20.80
2018-06-20T02:01:42.832Z,20.70
2018-06-20T02:04:12.026Z,20.70
2018-06-20T02:06:41.190Z,20.70
2018-06-20T02:09:10.342Z,20.70
2018-06-20T02:11:39.498Z,20.70
2018-06-20T02:14:09.010Z,20.70
2018-06-20T02:16:38.172Z,20.70
2018-06-20T02:19:07.334Z,20.70
2018-06-20T02:21:43.499Z,20.60
2018-06-20T02:24:12.647Z,20.50
2018-06-20T02:26:41.818Z,20.50
2018-06-20T02:29:10.990Z,20.50
2018-06-20T02:31:40.144Z,20.50
2018-06-20T02:34:09.280Z,20.40
2018-06-20T02:36:38.497Z,20.40
2018-06-20T02:39:08.782Z,20.40
2018-06-20T02:41:38.436Z,20.50
2018-06-20T02:44:08.064Z,20.50
2018-06-20T02:46:37.229Z,20.50
2018-06-20T02:49:06.394Z,20.50
2018-06-20T02:54:04.428Z,20.40
2018-06-20T02:56:33.577Z,20.40
2018-06-20T02:59:02.775Z,20.40
2018-06-20T03:01:31.930Z,20.40
2018-06-20T03:04:01.102Z,20.30
2018-06-20T03:06:30.623Z,20.30
2018-06-20T03:09:01.767Z,20.20
2018-06-20T03:11:31.338Z,20.20
2018-06-20T03:14:00.498Z,20.10
2018-06-20T03:16:30.059Z,20.20
2018-06-20T03:18:59.243Z,20.20
2018-06-20T03:21:28.571Z,20.20
2018-06-20T03:23:57.739Z,20.10
2018-06-20T03:26:27.014Z,20.10
2018-06-20T03:28:56.168Z,20.10
2018-06-20T03:31:25.338Z,20.10
2018-06-20T03:33:54.799Z,20.10
2018-06-20T03:36:23.953Z,20.10
2018-06-20T03:38:53.102Z,20.10
2018-06-20T03:41:22.474Z,20.00
2018-06-20T03:43:51.616Z,20.10
2018-06-20T03:48:50.134Z,20.10
2018-06-20T03:51:19.295Z,20.10
2018-06-20T03:53:48.474Z,20.00
2018-06-20T03:56:17.675Z,19.90
2018-06-20T03:58:46.849Z,19.80
2018-06-20T04:01:16.048Z,19.80
2018-06-20T04:03:45.218Z,19.80
2018-06-20T04:06:14.486Z,19.70
2018-06-20T04:08:43.637Z,19.60
2018-06-20T04:11:14.571Z,19.60
2018-06-20T04:13:43.719Z,19.60
2018-06-20T04:16:12.895Z,19.60
2018-06-20T04:18:44.087Z,19.60
2018-06-20T04:21:15.538Z,19.60
2018-06-20T04:23:44.722Z,19.50
2018-06-20T04:26:14.175Z,19.50
2018-06-20T04:28:43.310Z,19.50
2018-06-20T04:31:12.482Z,19.50
2018-06-20T04:33:42.363Z,19.50
2018-06-20T04:36:11.510Z,19.60
2018-06-20T04:38:40.691Z,19.60
2018-06-20T04:43:38.617Z,19.50
2018-06-20T04:46:07.794Z,19.50
2018-06-20T04:48:36.979Z,19.50
2018-06-20T04:51:06.151Z,19.60
2018-06-20T04:53:35.311Z,19.60
2018-06-20T04:56:05.359Z,19.60
2018-06-20T04:58:34.720Z,19.70
2018-06-20T05:01:03.895Z,19.80
2018-06-20T05:03:33.086Z,19.80
2018-06-20T05:06:02.247Z,19.70
2018-06-20T05:08:31.579Z,19.70
2018-06-20T05:11:00.810Z,19.70
2018-06-20T05:13:29.951Z,19.70
2018-06-20T05:15:59.114Z,19.80
2018-06-20T05:18:28.979Z,19.80
2018-06-20T05:20:58.681Z,19.90
2018-06-20T05:23:27.887Z,19.80
2018-06-20T05:25:57.408Z,19.80
2018-06-20T05:28:26.549Z,19.90
2018-06-20T05:33:24.552Z,20.00
2018-06-20T05:35:53.720Z,20.00
2018-06-20T05:38:22.906Z,20.00
2018-06-20T05:40:52.479Z,20.10
2018-06-20T05:43:21.629Z,20.10
2018-06-20T05:45:50.802Z,20.10
2018-06-20T05:48:19.979Z,20.20
2018-06-20T05:50:49.439Z,20.30
2018-06-20T05:53:18.619Z,20.30
2018-06-20T05:55:47.835Z,20.40
2018-06-20T05:58:17.035Z,20.40
2018-06-20T06:00:46.200Z,20.50
2018-06-20T06:03:15.462Z,20.60
2018-06-20T06:06:11.795Z,20.70
2018-06-20T06:08:41.248Z,20.80
2018-06-20T06:11:10.680Z,20.90
2018-06-20T06:13:39.903Z,21.10
2018-06-20T06:16:09.203Z,21.30
2018-06-20T06:18:38.362Z,21.50
2018-06-20T06:23:37.235Z,21.50
2018-06-20T06:26:06.422Z,21.40
2018-06-20T06:28:35.598Z,21.50
2018-06-20T06:31:04.807Z,21.60
2018-06-20T06:33:33.958Z,21.70
2018-06-20T06:36:03.118Z,21.70
2018-06-20T06:38:32.297Z,21.90
2018-06-20T06:41:01.620Z,21.90
2018-06-20T06:43:30.983Z,21.90
2018-06-20T06:46:00.651Z,21.90
2018-06-20T06:48:29.806Z,21.90
2018-06-20T06:50:58.992Z,21.90
2018-06-20T06:53:28.441Z,21.90
2018-06-20T06:55:57.622Z,21.90
2018-06-20T06:58:26.807Z,21.90
2018-06-20T07:00:56.007Z,21.80
2018-06-20T07:03:25.355Z,21.80
2018-06-20T07:05:54.571Z,21.80
2018-06-20T07:08:23.922Z,21.80
2018-06-20T07:10:53.225Z,21.80
2018-06-20T07:13:22.482Z,21.90
2018-06-20T07:15:51.735Z,21.90
2018-06-20T07:18:23.167Z,21.90
2018-06-20T07:20:52.411Z,21.90
2018-06-20T07:23:21.819Z,22.00
2018-06-20T07:25:51.291Z,22.00
2018-06-20T07:28:20.714Z,22.00
2018-06-20T07:30:49.879Z,22.10
2018-06-20T07:33:19.341Z,22.20
2018-06-20T07:35:48.619Z,22.20
2018-06-20T07:38:17.923Z,22.20
2018-06-20T07:40:47.073Z,22.30
2018-06-20T07:43:16.231Z,22.30
2018-06-20T07:45:46.467Z,22.30
2018-06-20T07:48:15.882Z,22.30
2018-06-20T07:50:45.460Z,22.40
2018-06-20T07:53:14.717Z,22.50
2018-06-20T07:55:43.867Z,22.60
2018-06-20T08:00:51.518Z,22.70
2018-06-20T08:03:25.911Z,22.80
2018-06-20T08:06:03.357Z,22.80
2018-06-20T08:08:38.153Z,22.80
2018-06-20T08:11:14.411Z,22.80
2018-06-20T08:15:51.278Z,22.90
2018-06-20T08:18:25.827Z,23.00
2018-06-20T08:20:55.093Z,23.00
2018-06-20T08:23:24.707Z,23.00
2018-06-20T08:25:53.864Z,23.10
2018-06-20T08:28:23.548Z,23.20
2018-06-20T08:30:53.566Z,23.20
2018-06-20T08:33:23.336Z,23.30
2018-06-20T08:35:53.476Z,23.40
2018-06-20T08:38:22.643Z,23.40
2018-06-20T08:40:51.807Z,23.50
2018-06-20T08:43:21.016Z,23.50
2018-06-20T08:45:50.182Z,23.60
2018-06-20T08:48:19.318Z,23.60
2018-06-20T08:50:48.788Z,23.70
2018-06-20T08:53:17.934Z,23.80
2018-06-20T08:55:47.315Z,23.80
2018-06-20T08:58:16.639Z,23.90
2018-06-20T09:00:51.359Z,23.90
2018-06-20T09:03:23.257Z,24.00
2018-06-20T09:05:57.703Z,24.10
2018-06-20T09:08:32.154Z,24.20
2018-06-20T09:11:06.647Z,24.20
2018-06-20T09:13:41.058Z,24.40
2018-06-20T09:16:16.195Z,24.50
2018-06-20T09:18:50.799Z,24.60
2018-06-20T09:21:19.951Z,24.70
2018-06-20T09:23:49.869Z,24.90
2018-06-20T09:26:19.538Z,25.10
2018-06-20T09:28:49.213Z,25.30
2018-06-20T09:31:18.419Z,25.40
2018-06-20T09:33:47.591Z,25.50
2018-06-20T09:36:17.098Z,25.60
2018-06-20T09:38:46.481Z,25.50
2018-06-20T09:41:16.217Z,25.60
2018-06-20T09:43:45.367Z,25.60
2018-06-20T09:46:14.535Z,25.70
2018-06-20T09:48:44.421Z,25.80
2018-06-20T09:51:14.050Z,25.70
2018-06-20T09:53:43.181Z,25.70
2018-06-20T09:56:12.375Z,25.70
2018-06-20T09:58:41.808Z,25.60
2018-06-20T10:01:17.021Z,25.70
2018-06-20T10:03:51.679Z,25.80
2018-06-20T10:06:26.532Z,26.00
2018-06-20T10:09:01.047Z,26.30
2018-06-20T10:11:35.583Z,26.50
2018-06-20T10:14:09.015Z,26.70
2018-06-20T10:16:38.793Z,26.90
2018-06-20T10:19:07.946Z,27.00
2018-06-20T10:21:37.199Z,27.10
2018-06-20T10:24:07.596Z,26.90
2018-06-20T10:26:36.927Z,26.60
2018-06-20T10:31:34.911Z,26.70
2018-06-20T10:34:05.197Z,26.80
2018-06-20T10:36:34.846Z,26.90
2018-06-20T10:39:05.882Z,26.90
2018-06-20T10:41:36.907Z,26.90
2018-06-20T10:44:11.374Z,26.90
2018-06-20T10:46:46.253Z,27.00
2018-06-20T10:49:17.426Z,27.20
2018-06-20T10:51:47.071Z,27.40
2018-06-20T10:56:50.741Z,27.50
2018-06-20T10:59:25.278Z,27.50
2018-06-20T11:01:59.671Z,27.50
2018-06-20T11:04:34.431Z,27.60
2018-06-20T11:07:09.201Z,27.70
2018-06-20T11:09:43.748Z,27.90
2018-06-20T11:12:18.291Z,28.10
2018-06-20T11:14:47.483Z,28.20
2018-06-20T11:17:16.710Z,28.40
2018-06-20T11:22:14.915Z,28.90
2018-06-20T11:24:44.475Z,29.20
2018-06-20T11:27:13.676Z,29.80
2018-06-20T11:29:42.841Z,30.30
2018-06-20T11:32:11.991Z,30.20
2018-06-20T11:34:41.170Z,30.00
2018-06-20T11:37:10.558Z,30.60
2018-06-20T11:39:39.706Z,31.70
2018-06-20T11:44:38.456Z,33.20
2018-06-20T11:47:13.636Z,34.40
2018-06-20T11:49:42.887Z,35.90
2018-06-20T11:52:17.632Z,37.10
2018-06-20T11:54:47.330Z,37.50
2018-06-20T11:57:16.503Z,38.30
2018-06-20T12:07:07.659Z,40.20
2018-06-20T12:09:42.879Z,40.30
2018-06-20T12:12:17.511Z,40.60
2018-06-20T12:14:52.135Z,41.10
2018-06-20T12:17:26.991Z,41.30
2018-06-20T12:20:01.415Z,41.40
2018-06-20T12:22:35.922Z,41.60
2018-06-20T12:25:12.052Z,42.10
2018-06-20T12:27:50.957Z,42.80
2018-06-20T12:30:25.550Z,43.30
2018-06-20T12:33:00.344Z,43.20
2018-06-20T12:35:34.981Z,43.10
2018-06-20T12:40:44.154Z,42.60
2018-06-20T12:43:18.662Z,42.40
2018-06-20T12:45:51.603Z,41.10
2018-06-20T12:48:21.500Z,40.30
2018-06-20T12:50:50.704Z,39.90
2018-06-20T12:53:20.303Z,39.00
2018-06-20T12:55:49.471Z,39.70
2018-06-20T12:58:19.011Z,41.00
2018-06-20T13:00:48.226Z,42.20
2018-06-20T13:03:17.511Z,43.30
2018-06-20T13:05:48.263Z,44.30
2018-06-20T13:08:17.552Z,44.50
2018-06-20T13:10:48.076Z,43.70
2018-06-20T13:13:17.298Z,43.30
2018-06-20T13:15:46.785Z,41.90
2018-06-20T13:18:15.969Z,40.00
2018-06-20T13:20:45.262Z,38.50
2018-06-20T13:23:14.410Z,37.60
2018-06-20T13:25:45.027Z,37.30
2018-06-20T13:28:14.171Z,37.50
2018-06-20T13:30:47.946Z,37.50
2018-06-20T13:33:22.579Z,37.40
2018-06-20T13:35:57.053Z,38.00
2018-06-20T13:38:31.354Z,39.40
2018-06-20T13:41:05.647Z,41.00
2018-06-20T13:43:40.338Z,42.70
2018-06-20T13:46:15.327Z,43.90
2018-06-20T13:48:44.491Z,45.10
2018-06-20T13:51:13.651Z,45.80
2018-06-20T13:53:42.863Z,46.00
2018-06-20T13:56:12.093Z,46.30
2018-06-20T13:58:41.199Z,46.00
2018-06-20T14:01:10.375Z,45.50
2018-06-20T14:03:39.538Z,45.70
2018-06-20T14:06:08.807Z,46.30
2018-06-20T14:08:38.256Z,46.10
2018-06-20T14:11:07.419Z,46.10
2018-06-20T14:13:36.558Z,46.80
2018-06-20T14:16:05.833Z,47.30
2018-06-20T14:18:37.451Z,47.80
2018-06-20T14:21:12.797Z,47.90
2018-06-20T14:23:43.877Z,48.20
2018-06-20T14:26:15.608Z,47.20
2018-06-20T14:28:46.389Z,46.70
2018-06-20T14:31:21.361Z,46.70
2018-06-20T14:33:55.851Z,46.30
2018-06-20T14:36:30.395Z,46.40
2018-06-20T14:39:05.051Z,47.00
2018-06-20T14:41:39.886Z,47.50
2018-06-20T14:44:10.470Z,47.70
2018-06-20T14:46:39.664Z,47.80
2018-06-20T14:49:08.873Z,47.90
2018-06-20T14:51:38.435Z,48.10
2018-06-20T14:54:07.700Z,48.30
2018-06-20T14:56:36.902Z,48.10
2018-06-20T14:59:06.090Z,48.40
2018-06-20T15:01:35.251Z,48.50
2018-06-20T15:04:04.754Z,48.30
2018-06-20T15:06:33.949Z,48.10
2018-06-20T15:09:03.535Z,48.20
2018-06-20T15:11:32.712Z,47.90
2018-06-20T15:14:01.937Z,47.50
2018-06-20T15:16:36.415Z,46.40
2018-06-20T15:19:05.723Z,46.20
2018-06-20T15:21:34.966Z,46.60
2018-06-20T15:24:04.786Z,46.80
2018-06-20T15:26:39.705Z,47.10
2018-06-20T15:29:14.173Z,47.50
2018-06-20T15:31:48.607Z,47.90
2018-06-20T15:34:23.178Z,47.90
2018-06-20T15:36:57.622Z,47.50
2018-06-20T15:39:27.387Z,46.90
2018-06-20T15:41:56.562Z,46.60
2018-06-20T15:44:25.827Z,46.90
2018-06-20T15:46:55.320Z,47.20
2018-06-20T15:49:24.547Z,47.10
2018-06-20T15:51:53.965Z,46.10
2018-06-20T15:54:23.267Z,45.90
2018-06-20T15:56:52.702Z,46.00
2018-06-20T15:59:21.853Z,45.80
2018-06-20T16:01:51.428Z,46.40
2018-06-20T16:04:21.371Z,47.00
2018-06-20T16:06:50.571Z,46.70
2018-06-20T16:09:25.074Z,46.20
2018-06-20T16:11:54.235Z,46.40
2018-06-20T16:14:23.422Z,47.10
2018-06-20T16:16:52.770Z,47.30
2018-06-20T16:19:27.176Z,47.00
2018-06-20T16:22:01.658Z,46.50
2018-06-20T16:24:35.978Z,46.00
2018-06-20T16:27:10.945Z,45.50
2018-06-20T16:29:45.243Z,45.30
2018-06-20T16:32:14.842Z,45.30
2018-06-20T16:34:43.980Z,45.20
2018-06-20T16:37:13.131Z,45.00
2018-06-20T16:39:42.311Z,44.90
2018-06-20T16:42:11.503Z,44.90
2018-06-20T16:44:40.822Z,45.30
2018-06-20T16:47:10.174Z,45.40
2018-06-20T16:49:39.324Z,45.50
2018-06-20T16:52:08.510Z,45.80
2018-06-20T16:54:37.964Z,46.00
2018-06-20T16:57:07.310Z,45.60
2018-06-20T16:59:36.524Z,45.70
2018-06-20T17:02:10.902Z,45.70
2018-06-20T17:04:40.082Z,45.50
2018-06-20T17:07:09.262Z,45.30
2018-06-20T17:09:38.461Z,45.40
2018-06-20T17:12:13.002Z,45.30
2018-06-20T17:14:47.715Z,45.30
2018-06-20T17:17:22.135Z,44.90
2018-06-20T17:19:56.683Z,44.50
2018-06-20T17:22:31.015Z,44.20
2018-06-20T17:25:05.499Z,44.20
2018-06-20T17:27:35.714Z,44.10
2018-06-20T17:30:05.755Z,44.10
2018-06-20T17:32:35.015Z,44.00
2018-06-20T17:35:04.368Z,44.00
2018-06-20T17:37:33.657Z,43.90
2018-06-20T17:40:02.947Z,44.00
2018-06-20T17:42:32.124Z,44.00
2018-06-20T17:45:01.499Z,44.00
2018-06-20T17:47:30.679Z,43.90
2018-06-20T17:49:59.899Z,43.90
2018-06-20T17:52:29.082Z,43.70
2018-06-20T17:54:58.507Z,43.40
2018-06-20T17:57:27.950Z,42.90
2018-06-20T17:59:57.944Z,42.50
2018-06-20T18:02:27.244Z,42.20
2018-06-20T18:05:01.632Z,42.00
2018-06-20T18:07:36.137Z,41.80
2018-06-20T18:10:10.911Z,41.70
2018-06-20T18:12:45.292Z,41.30
2018-06-20T18:15:19.738Z,41.10
2018-06-20T18:17:49.192Z,40.40
2018-06-20T18:20:18.335Z,39.50
2018-06-20T18:22:47.480Z,38.60
2018-06-20T18:25:16.651Z,38.00
2018-06-20T18:27:46.328Z,37.50
2018-06-20T18:30:15.483Z,37.00
2018-06-20T18:32:45.178Z,36.70
2018-06-20T18:35:14.333Z,36.40
2018-06-20T18:37:43.570Z,36.10
2018-06-20T18:40:12.812Z,35.80
2018-06-20T18:42:42.007Z,35.40
2018-06-20T18:45:11.438Z,35.10
2018-06-20T18:47:46.518Z,34.80
2018-06-20T18:50:15.943Z,34.60
2018-06-20T18:52:45.098Z,34.50
2018-06-20T18:55:14.585Z,34.50
2018-06-20T18:57:49.131Z,34.30
2018-06-20T19:00:23.630Z,34.10
2018-06-20T19:02:58.383Z,33.90
2018-06-20T19:05:32.902Z,33.80
2018-06-20T19:08:07.322Z,33.60
2018-06-20T19:10:36.499Z,33.40
2018-06-20T19:13:05.935Z,33.20
2018-06-20T19:15:35.103Z,33.10
2018-06-20T19:18:04.347Z,33.00
2018-06-20T19:20:33.588Z,32.90
2018-06-20T19:23:02.733Z,32.80
2018-06-20T19:25:32.043Z,32.80
2018-06-20T19:28:01.483Z,32.60
2018-06-20T19:30:30.658Z,32.60
2018-06-20T19:32:59.827Z,32.40
2018-06-20T19:35:29.074Z,32.30
2018-06-20T19:37:58.239Z,32.20
2018-06-20T19:40:27.419Z,32.00
2018-06-20T19:42:56.594Z,31.90
2018-06-20T19:47:54.926Z,31.60
2018-06-20T19:50:24.174Z,31.50
2018-06-20T19:52:53.340Z,31.50
2018-06-20T19:55:22.503Z,31.30
2018-06-20T19:57:51.778Z,31.20
2018-06-20T20:00:20.936Z,31.10
2018-06-20T20:02:50.113Z,31.00
2018-06-20T20:05:19.271Z,30.90
2018-06-20T20:07:48.442Z,30.70
2018-06-20T20:10:17.717Z,30.60
2018-06-20T20:12:47.294Z,30.50
2018-06-20T20:15:16.435Z,30.40
2018-06-20T20:17:45.695Z,30.30
2018-06-20T20:20:14.940Z,30.30
2018-06-20T20:25:12.957Z,30.10
2018-06-20T20:27:42.147Z,30.00
2018-06-20T20:30:11.841Z,29.90
2018-06-20T20:32:41.727Z,29.90
2018-06-20T20:35:10.892Z,29.70
2018-06-20T20:37:40.138Z,29.60
2018-06-20T20:40:09.419Z,29.60
2018-06-20T20:42:38.570Z,29.50
2018-06-20T20:45:07.791Z,29.50
2018-06-20T20:47:37.036Z,29.40
2018-06-20T20:50:06.573Z,29.30
2018-06-20T20:52:35.830Z,29.10
2018-06-20T20:55:05.648Z,29.00
2018-06-20T20:57:34.861Z,28.90
2018-06-20T21:00:04.123Z,28.90
2018-06-20T21:02:33.419Z,28.80
2018-06-20T21:05:02.743Z,28.70
2018-06-20T21:07:31.895Z,28.70
2018-06-20T21:12:29.823Z,28.50
2018-06-20T21:14:58.962Z,28.40
2018-06-20T21:17:28.834Z,28.40
2018-06-20T21:19:58.006Z,28.30
2018-06-20T21:22:27.155Z,28.30
2018-06-20T21:24:56.355Z,28.20
2018-06-20T21:27:25.511Z,28.20
2018-06-20T21:29:54.667Z,28.10
2018-06-20T21:32:24.207Z,28.00
2018-06-20T21:34:53.640Z,28.00
2018-06-20T21:37:22.855Z,27.90
2018-06-20T21:39:52.421Z,27.80
2018-06-20T21:42:21.582Z,27.70
2018-06-20T21:44:50.719Z,27.50
2018-06-20T21:47:19.889Z,27.50
2018-06-20T21:49:49.047Z,27.40
2018-06-20T21:52:18.203Z,27.30
2018-06-20T21:54:47.381Z,27.20
2018-06-20T21:57:16.566Z,27.20
2018-06-20T21:59:46.080Z,27.20
2018-06-20T22:02:15.347Z,27.10
2018-06-20T22:04:44.515Z,27.10
2018-06-20T22:07:13.739Z,27.00
2018-06-20T22:09:42.940Z,26.80
2018-06-20T22:12:12.139Z,26.80
2018-06-20T22:14:41.356Z,26.60
2018-06-20T22:17:10.513Z,26.60
2018-06-20T22:19:39.650Z,26.50
2018-06-20T22:22:08.834Z,26.40
2018-06-20T22:24:38.410Z,26.40
2018-06-20T22:27:07.571Z,26.40
2018-06-20T22:29:36.995Z,26.40
2018-06-20T22:32:06.189Z,26.30
2018-06-20T22:34:35.491Z,26.20
2018-06-20T22:37:04.702Z,26.20
2018-06-20T22:39:33.917Z,26.20
2018-06-20T22:42:03.075Z,26.10
2018-06-20T22:44:32.234Z,26.00
2018-06-20T22:47:01.466Z,25.90
2018-06-20T22:51:59.521Z,25.80
2018-06-20T22:54:28.718Z,25.80
2018-06-20T22:56:58.015Z,25.70
2018-06-20T22:59:27.200Z,25.70
2018-06-20T23:01:56.375Z,25.60
2018-06-20T23:04:25.535Z,25.50
2018-06-20T23:06:54.692Z,25.50
2018-06-20T23:09:24.295Z,25.40
2018-06-20T23:11:53.499Z,25.40
2018-06-20T23:14:22.652Z,25.30
2018-06-20T23:19:20.594Z,25.20
2018-06-20T23:21:49.758Z,25.10
2018-06-20T23:24:18.956Z,25.00
2018-06-20T23:26:48.123Z,25.00
2018-06-20T23:29:17.276Z,25.00
2018-06-20T23:31:46.805Z,24.90
2018-06-20T23:34:16.003Z,24.80
2018-06-20T23:36:45.589Z,24.80
2018-06-20T23:39:14.788Z,24.70
2018-06-20T23:41:43.968Z,24.70
2018-06-20T23:44:13.131Z,24.70
2018-06-20T23:46:42.344Z,24.60
2018-06-20T23:49:11.507Z,24.60
2018-06-20T23:51:40.660Z,24.50
2018-06-20T23:54:10.275Z,24.40
2018-06-20T23:56:39.454Z,24.40
2018-06-20T23:59:08.622Z,24.30
